Accueil
METAR-TAF:

METAR-TAF

Aéroports :

Plate-forme pétrolière

Hoorn-a, Pays-Bas

latitude: 52-55-05N, longitude: 4-09-01E, altitude: 41 m

Observation

Le bulletin a été fait il y a 24 minutes, à 20:55 UTC
Vent 14 kt de nord-ouest
Température 15°C
Humidité 88%
Pression 1025 hPa
Visibilité 10 km ou plus
Quelques nuages à une hauteur de 800 ft
Nuages épars à une hauteur de 1100 ft
Nuages fragmentés à une hauteur de 2500 ft

METAR: EHQE 212055Z AUTO 32014KT 9999 FEW008 SCT011 BKN025 15/13 Q1025 W///H///

Heure: 23:19 (21:19 UTC)


TAF: absent

Observations et prévisions météorologiques de plus de 4000 aéroports (messages METAR et TAF).

Les stations disponibles sont représentées par des disques jaunes et rouges sur la carte.

Passer la souris dessus pour voir le nom de la station.

Cliquer dessus pour voir les observations et prévisions météorologiques.

Pour changer de carte: cliquez sur les boutons verts avec une croix noire pour zoomer, sur le bouton vert avec un tiret pour effectuer un zoom arrière, ou sur les flèches vertes pour les cartes adjacentes.


METAR-TAF: